Ernest A. Love Field
KPRC : now visible

Airfield :











YOU CAN JOIN US ON...

 
LOGIN :

Register | Disclaimer

   EN    FR    IT 

 









Legend :    VFR   Marginal VFR   IFR   Intensive IFR   Very Intensive IFR
Visi :
Ceiling :
>= 8 km
>= 3000ft
5 to 8 km
1000 to 3000 ft
1500m to 5 km
500 to 1000 ft
800 to 1500m
200 to 500 ft
< 800m
< 200 ft
Symbols :   Thunderstorms  Fog  Heavy snow  Heavy precipitations  Wind > 20 kt






- Airport Elevation : 5045 ft
- IATA code : PRC


KPRC - Ernest A. Love Field

CURRENT METAR :
  • 191953Z 23007G17KT 10SM CLR 33/10 A3022 RMK AO2 SLP134 T03330100

EXPIRED METARs :
  • 191853Z 00000KT 10SM SCT080 33/08 A3024 RMK AO2 LTG DSNT NW SLP140 T03330083
  • 191753Z 17003KT 10SM SCT080 32/08 A3026 RMK AO2 SLP146 T03170078 10322 20189 58004
  • 191653Z 23003KT 10SM CLR 29/11 A3027 RMK AO2 SLP153 T02940111
  • 191553Z 33004KT 10SM CLR 27/11 A3028 RMK AO2 SLP160 T02670111

TAF KPRC
Valid from the 19 at 18:00 until the 20 at 18:00 UTC


191720Z 1918/2018 18005KT P6SM SKC
FM191900 25009KT P6SM VCTS BKN100CB
TEMPO 1921/2001 VRB15G25KT -TSRA BKN080CB
FM200200 33012KT P6SM VCSH BKN120
FM200600 19005KT P6SM BKN150
KZAB FIR / North America



MET'MAP, your aeronautical weather chart ! - Copyright ORBIFLY December 2007 - Disclaimer

ORBIFLY MET'MAP TEAM :

Programming & Development : Alexandra Zaïnal
Original concept : Baudouin d'Aumeries
Technical & hardware support : Manuel Goepfert
Assistance : Marc-Olivier Méhu




SOURCES & CREDITS :

   NOAA       Earth
Advisory